createdAt,value
2023-05-07T00:04:29.079Z,16.40
2023-05-07T00:19:45.760Z,16.40
2023-05-07T00:35:02.342Z,17.00
2023-05-07T00:50:11.092Z,17.10
2023-05-07T01:05:16.992Z,17.10
2023-05-07T01:20:24.450Z,16.50
2023-05-07T01:35:36.820Z,16.70
2023-05-07T01:50:54.037Z,16.70
2023-05-07T02:06:10.676Z,16.50
2023-05-07T02:21:15.882Z,16.20
2023-05-07T02:36:21.984Z,16.30
2023-05-07T02:51:36.889Z,16.40
2023-05-07T03:06:47.778Z,16.50
2023-05-07T03:22:04.626Z,16.60
2023-05-07T03:37:07.554Z,16.60
2023-05-07T03:52:26.831Z,14.80
2023-05-07T04:07:36.176Z,16.10
2023-05-07T04:22:39.121Z,15.90
2023-05-07T04:37:45.638Z,15.30
2023-05-07T04:52:53.558Z,14.80
2023-05-07T05:08:00.590Z,15.10
2023-05-07T05:23:03.828Z,15.10
2023-05-07T05:38:10.968Z,15.70
2023-05-07T05:53:18.277Z,16.20
2023-05-07T06:08:24.425Z,16.40
2023-05-07T06:23:41.865Z,16.20
2023-05-07T06:38:45.452Z,16.40
2023-05-07T06:53:56.927Z,16.30
2023-05-07T07:09:01.534Z,16.50
2023-05-07T07:24:08.423Z,17.00
2023-05-07T07:39:11.996Z,17.00
2023-05-07T07:54:15.510Z,17.50
2023-05-07T08:09:19.735Z,17.70
2023-05-07T08:24:24.469Z,17.80
2023-05-07T08:39:32.011Z,18.20
2023-05-07T08:54:37.420Z,18.50
2023-05-07T09:09:41.453Z,19.30
2023-05-07T09:24:53.139Z,19.90
2023-05-07T09:40:00.064Z,20.40
2023-05-07T09:55:19.508Z,20.70
2023-05-07T10:10:25.105Z,19.40
2023-05-07T10:25:33.346Z,21.80
2023-05-07T10:40:47.907Z,21.80
2023-05-07T10:56:13.093Z,21.50
2023-05-07T11:11:56.625Z,21.40
2023-05-07T11:27:10.438Z,22.00
2023-05-07T11:42:30.285Z,22.80
2023-05-07T11:57:36.606Z,22.80
2023-05-07T12:12:53.492Z,22.70
2023-05-07T12:27:59.746Z,22.90
2023-05-07T12:43:04.540Z,23.10
2023-05-07T12:58:25.410Z,22.70
2023-05-07T13:13:31.083Z,22.40
2023-05-07T13:28:35.053Z,21.30
2023-05-07T13:43:38.267Z,20.00
2023-05-07T13:58:51.793Z,19.80
2023-05-07T14:13:59.940Z,19.50
2023-05-07T14:29:03.399Z,19.20
2023-05-07T14:44:09.503Z,19.50
2023-05-07T14:59:18.454Z,20.10
2023-05-07T15:14:35.889Z,20.00
2023-05-07T15:29:38.858Z,20.40
2023-05-07T15:44:42.328Z,20.10
2023-05-07T16:00:00.274Z,20.10
2023-05-07T16:15:03.824Z,20.20
2023-05-07T16:30:26.871Z,19.80
2023-05-07T16:45:29.728Z,20.00
2023-05-07T17:00:48.984Z,20.00
2023-05-07T17:16:07.649Z,19.90
2023-05-07T17:31:25.837Z,19.50
2023-05-07T17:46:43.511Z,19.90
2023-05-07T18:01:50.032Z,19.80
2023-05-07T18:16:56.831Z,19.80
2023-05-07T18:32:03.174Z,19.60
2023-05-07T18:47:06.546Z,19.60
2023-05-07T19:02:09.545Z,19.80
2023-05-07T19:17:14.049Z,19.90
2023-05-07T19:32:21.222Z,20.10
2023-05-07T19:47:28.090Z,20.40
2023-05-07T20:02:34.563Z,20.40
2023-05-07T20:17:51.276Z,20.40
2023-05-07T20:32:53.850Z,20.30
2023-05-07T20:48:12.206Z,20.20
2023-05-07T21:03:18.528Z,20.30
2023-05-07T21:18:35.698Z,20.10
2023-05-07T21:33:53.245Z,20.20
2023-05-07T21:49:09.840Z,20.20
2023-05-07T22:04:26.807Z,20.20
2023-05-07T22:19:37.197Z,20.00
2023-05-07T22:34:59.847Z,19.70
2023-05-07T22:50:20.563Z,19.90
2023-05-07T23:05:23.902Z,19.90
2023-05-07T23:20:41.198Z,19.80
2023-05-07T23:35:43.734Z,19.60
2023-05-07T23:50:46.598Z,19.40
